createdAt,value
2022-12-11T00:00:29.237Z,25.10
2022-12-11T00:02:56.772Z,26.48
2022-12-11T00:05:24.100Z,28.80
2022-12-11T00:07:50.879Z,24.33
2022-12-11T00:10:17.837Z,30.08
2022-12-11T00:12:44.487Z,26.83
2022-12-11T00:15:11.517Z,30.20
2022-12-11T00:17:38.612Z,26.02
2022-12-11T00:20:06.545Z,28.58
2022-12-11T00:22:33.991Z,27.92
2022-12-11T00:25:00.799Z,23.77
2022-12-11T00:27:27.670Z,23.88
2022-12-11T00:29:54.312Z,33.22
2022-12-11T00:32:21.116Z,27.50
2022-12-11T00:34:47.841Z,25.20
2022-12-11T00:37:14.802Z,28.92
2022-12-11T00:39:41.538Z,28.80
2022-12-11T00:42:09.079Z,24.08
2022-12-11T00:44:39.442Z,27.98
2022-12-11T00:47:06.222Z,29.45
2022-12-11T00:49:33.018Z,31.52
2022-12-11T00:51:59.838Z,28.60
2022-12-11T00:54:26.634Z,23.75
2022-12-11T00:56:56.381Z,27.95
2022-12-11T00:59:23.041Z,23.15
2022-12-11T01:01:49.715Z,21.10
2022-12-11T01:04:16.443Z,24.52
2022-12-11T01:06:43.086Z,23.60
2022-12-11T01:09:28.314Z,24.25
2022-12-11T01:11:55.025Z,24.98
2022-12-11T01:14:21.875Z,23.80
2022-12-11T01:16:48.607Z,27.10
2022-12-11T01:19:17.444Z,28.10
2022-12-11T01:21:44.213Z,24.55
2022-12-11T01:24:10.897Z,22.13
2022-12-11T01:26:37.507Z,25.63
2022-12-11T01:29:04.237Z,27.90
2022-12-11T01:31:31.038Z,24.88
2022-12-11T01:33:57.741Z,25.08
2022-12-11T01:36:25.040Z,28.20
2022-12-11T01:38:53.568Z,21.98
2022-12-11T01:41:21.867Z,25.75
2022-12-11T01:44:27.914Z,28.58
2022-12-11T01:46:55.155Z,27.83
2022-12-11T01:49:27.885Z,23.92
2022-12-11T01:52:11.316Z,22.73
2022-12-11T01:54:38.475Z,31.60
2022-12-11T01:57:11.081Z,26.10
2022-12-11T01:59:44.603Z,29.10
2022-12-11T02:02:33.905Z,27.05
2022-12-11T02:05:05.552Z,23.88
2022-12-11T02:07:46.349Z,22.63
2022-12-11T02:10:14.316Z,26.25
2022-12-11T02:12:57.594Z,25.60
2022-12-11T02:15:54.506Z,25.40
2022-12-11T02:18:48.649Z,25.38
2022-12-11T02:21:50.956Z,19.73
2022-12-11T02:24:57.858Z,25.65
2022-12-11T02:27:40.690Z,22.52
2022-12-11T02:30:13.902Z,24.73
2022-12-11T02:32:57.959Z,25.88
2022-12-11T02:35:47.470Z,26.48
2022-12-11T02:38:31.115Z,23.48
2022-12-11T02:41:02.644Z,18.77
2022-12-11T02:43:34.205Z,23.58
2022-12-11T02:46:04.582Z,28.25
2022-12-11T02:48:35.980Z,22.65
2022-12-11T02:51:09.349Z,24.33
2022-12-11T02:53:44.038Z,24.55
2022-12-11T02:56:21.039Z,28.85
2022-12-11T02:59:00.146Z,24.83
2022-12-11T03:01:28.008Z,25.90
2022-12-11T03:03:58.154Z,25.23
2022-12-11T03:06:36.645Z,24.17
2022-12-11T03:09:07.095Z,24.95
2022-12-11T03:11:36.854Z,28.00
2022-12-11T03:14:04.803Z,27.40
2022-12-11T03:16:59.712Z,26.60
2022-12-11T03:19:55.300Z,27.88
2022-12-11T03:23:18.222Z,24.48
2022-12-11T03:25:59.437Z,24.25
2022-12-11T03:28:46.333Z,26.95
2022-12-11T03:31:31.734Z,25.73
2022-12-11T03:34:10.526Z,33.45
2022-12-11T03:36:40.194Z,27.70
2022-12-11T03:39:22.256Z,40.15
2022-12-11T03:41:53.527Z,36.75
2022-12-11T03:44:22.692Z,40.15
2022-12-11T03:46:56.227Z,33.92
2022-12-11T03:49:37.051Z,30.98
2022-12-11T03:52:07.589Z,38.30
2022-12-11T03:54:35.499Z,30.23
2022-12-11T03:57:08.321Z,28.42
2022-12-11T03:59:37.771Z,32.17
2022-12-11T04:02:10.909Z,25.15
2022-12-11T04:04:42.708Z,21.63
2022-12-11T04:07:10.041Z,28.15
2022-12-11T04:09:37.920Z,27.50
2022-12-11T04:12:08.259Z,26.38
2022-12-11T04:14:53.381Z,25.77
2022-12-11T04:17:38.399Z,32.25
2022-12-11T04:20:25.743Z,28.30
2022-12-11T04:23:11.026Z,26.45
2022-12-11T04:25:37.665Z,25.77
2022-12-11T04:28:04.456Z,27.65
2022-12-11T04:30:34.383Z,26.63
2022-12-11T04:33:02.064Z,26.38
2022-12-11T04:35:29.324Z,25.35
2022-12-11T04:37:56.229Z,24.00
2022-12-11T04:40:23.105Z,28.33
2022-12-11T04:42:49.782Z,27.85
2022-12-11T04:45:16.762Z,25.50
2022-12-11T04:47:43.899Z,26.70
2022-12-11T04:50:14.473Z,24.92
2022-12-11T04:52:42.548Z,25.20
2022-12-11T04:55:11.569Z,25.63
2022-12-11T04:57:39.664Z,27.48
2022-12-11T05:00:11.359Z,24.13
2022-12-11T05:02:42.806Z,23.50
2022-12-11T05:05:11.961Z,28.40
2022-12-11T05:07:39.079Z,24.15
2022-12-11T05:10:07.472Z,27.63
2022-12-11T05:12:34.426Z,22.77
2022-12-11T05:15:01.115Z,24.83
2022-12-11T05:17:27.791Z,30.20
2022-12-11T05:19:54.663Z,25.42
2022-12-11T05:22:21.374Z,29.70
2022-12-11T05:24:47.984Z,23.95
2022-12-11T05:27:14.726Z,26.23
2022-12-11T05:29:43.493Z,25.88
2022-12-11T05:32:10.258Z,25.95
2022-12-11T05:34:37.203Z,30.67
2022-12-11T05:37:04.084Z,27.02
2022-12-11T05:39:30.863Z,24.95
2022-12-11T05:41:57.972Z,26.92
2022-12-11T05:44:25.057Z,24.95
2022-12-11T05:46:51.911Z,31.65
2022-12-11T05:49:20.152Z,27.02
2022-12-11T05:51:49.660Z,25.88
2022-12-11T05:54:16.472Z,28.52
2022-12-11T05:56:43.313Z,25.40
2022-12-11T05:59:10.493Z,26.63
2022-12-11T06:01:43.430Z,24.77
2022-12-11T06:04:14.449Z,22.67
2022-12-11T06:12:08.639Z,27.20
2022-12-11T07:54:40.851Z,38.13
2022-12-11T08:54:59.099Z,29.23
2022-12-11T08:57:27.498Z,32.40
2022-12-11T08:59:54.414Z,31.98
2022-12-11T09:02:21.225Z,31.80
2022-12-11T09:05:12.922Z,36.70
2022-12-11T09:07:39.907Z,30.83
2022-12-11T09:10:16.101Z,29.42
2022-12-11T09:12:43.736Z,34.67
2022-12-11T09:15:11.955Z,33.95
2022-12-11T09:18:36.522Z,35.35
2022-12-11T09:21:23.793Z,33.38
2022-12-11T10:31:55.902Z,20.50
2022-12-11T10:34:50.633Z,21.98
2022-12-11T10:37:42.692Z,18.02
2022-12-11T10:40:38.688Z,20.42
2022-12-11T10:45:55.146Z,22.50
2022-12-11T10:48:56.665Z,23.13
2022-12-11T10:51:42.019Z,24.75
2022-12-11T10:54:39.946Z,31.88
2022-12-11T10:57:30.229Z,24.45
2022-12-11T11:00:00.800Z,24.25
2022-12-11T11:02:41.544Z,20.67
2022-12-11T11:05:35.907Z,25.70
2022-12-11T11:08:16.234Z,28.95
2022-12-11T11:11:06.011Z,28.92
2022-12-11T11:13:33.054Z,21.33
2022-12-11T11:16:12.239Z,24.65
2022-12-11T11:18:42.026Z,27.77
2022-12-11T11:21:30.070Z,26.30
2022-12-11T11:24:06.545Z,24.05
2022-12-11T11:39:26.251Z,28.25
2022-12-11T12:03:21.852Z,21.85
2022-12-11T12:06:58.576Z,24.73
2022-12-11T14:55:12.849Z,21.75
2022-12-11T14:57:57.274Z,19.95
2022-12-11T17:29:37.311Z,29.92
2022-12-11T17:51:20.855Z,31.55
2022-12-11T17:53:52.849Z,36.17
2022-12-11T19:09:32.822Z,34.17
2022-12-11T19:22:54.915Z,32.10
2022-12-11T19:39:08.358Z,33.30
2022-12-11T19:52:22.118Z,31.55
2022-12-11T19:54:48.773Z,31.63
2022-12-11T19:57:15.387Z,27.67
2022-12-11T19:59:50.310Z,27.15
2022-12-11T20:02:20.740Z,23.42
2022-12-11T20:04:50.828Z,25.65
2022-12-11T20:07:18.001Z,22.70
2022-12-11T20:09:52.596Z,22.50
2022-12-11T20:12:19.363Z,24.92
2022-12-11T20:14:48.482Z,25.98
2022-12-11T20:17:15.523Z,28.17
2022-12-11T20:19:42.821Z,26.80
2022-12-11T20:22:10.246Z,26.42
2022-12-11T20:24:37.762Z,31.65
2022-12-11T20:27:05.073Z,30.58
2022-12-11T20:29:34.188Z,33.83
2022-12-11T20:32:01.005Z,29.10
2022-12-11T20:34:28.020Z,32.20
2022-12-11T20:36:55.730Z,33.95
2022-12-11T20:39:22.629Z,33.50
2022-12-11T20:41:49.379Z,31.42
2022-12-11T20:44:19.603Z,35.17
2022-12-11T20:46:50.897Z,34.85
2022-12-11T20:49:17.664Z,32.08
2022-12-11T20:51:44.418Z,33.90
2022-12-11T20:54:11.360Z,28.95
2022-12-11T20:56:38.517Z,33.97
2022-12-11T20:59:05.742Z,30.10
2022-12-11T21:01:34.795Z,29.90
2022-12-11T21:04:02.522Z,30.65
2022-12-11T21:06:35.438Z,26.52
2022-12-11T21:09:15.076Z,30.17
2022-12-11T21:11:45.211Z,29.48
2022-12-11T21:14:12.092Z,26.85
2022-12-11T21:16:39.374Z,30.08
2022-12-11T21:19:12.385Z,25.67
2022-12-11T21:21:45.147Z,23.45
2022-12-11T21:24:27.563Z,24.10
2022-12-11T21:26:58.045Z,21.17
2022-12-11T21:29:29.371Z,29.27
2022-12-11T21:31:56.861Z,24.58
2022-12-11T21:34:25.695Z,26.33
2022-12-11T21:36:56.930Z,26.85
2022-12-11T21:39:26.611Z,26.45
2022-12-11T21:41:53.375Z,26.58
2022-12-11T21:47:07.019Z,34.10
2022-12-11T21:49:37.640Z,26.77
2022-12-11T21:52:05.185Z,26.67
2022-12-11T21:54:31.771Z,27.88
2022-12-11T21:56:58.411Z,27.00
2022-12-11T21:59:25.099Z,24.27
2022-12-11T22:01:52.029Z,26.27
2022-12-11T22:04:22.037Z,30.65
2022-12-11T22:06:48.802Z,29.27
2022-12-11T22:09:17.983Z,29.60
2022-12-11T22:11:52.583Z,33.00
2022-12-11T22:14:23.310Z,35.03
2022-12-11T22:16:50.237Z,37.50
2022-12-11T22:19:27.842Z,35.63
2022-12-11T22:21:58.915Z,39.05
2022-12-11T22:24:25.597Z,32.92
2022-12-11T22:26:52.225Z,33.65
2022-12-11T22:29:19.181Z,37.08
2022-12-11T22:31:48.548Z,34.67
2022-12-11T22:34:15.302Z,31.92
2022-12-11T22:36:42.281Z,36.80
2022-12-11T22:39:08.989Z,33.15
2022-12-11T22:41:41.777Z,29.50
2022-12-11T22:44:21.659Z,37.85
2022-12-11T22:46:50.496Z,35.63
2022-12-11T22:49:22.471Z,34.13
2022-12-11T22:51:49.439Z,33.55
2022-12-11T22:54:16.746Z,35.42
2022-12-11T22:56:52.523Z,36.22
2022-12-11T22:59:22.017Z,35.47
2022-12-11T23:01:49.112Z,32.38
2022-12-11T23:04:15.909Z,31.83
2022-12-11T23:06:42.555Z,34.35
2022-12-11T23:09:10.965Z,37.08
2022-12-11T23:11:39.934Z,37.83
2022-12-11T23:14:17.104Z,36.20
2022-12-11T23:16:44.471Z,32.25
2022-12-11T23:19:13.267Z,32.22
2022-12-11T23:21:40.653Z,32.28
2022-12-11T23:24:08.655Z,33.03
2022-12-11T23:26:35.845Z,31.00
2022-12-11T23:29:05.252Z,34.45
2022-12-11T23:31:36.119Z,30.70
2022-12-11T23:34:03.153Z,31.42
2022-12-11T23:36:39.335Z,34.70
2022-12-11T23:39:06.524Z,36.97
2022-12-11T23:41:36.245Z,36.20
2022-12-11T23:44:03.663Z,34.08
2022-12-11T23:46:30.766Z,36.30
2022-12-11T23:48:57.486Z,38.47
2022-12-11T23:51:25.591Z,37.53
2022-12-11T23:53:53.262Z,33.70
2022-12-11T23:56:27.814Z,33.10
2022-12-11T23:58:56.116Z,33.35
